ADDS METAR Data INFO
IDs: Format: Raw Decoded Include TAF

Data at: 1747 UTC 21 Oct 2017

METAR for:KSRQ (Sarasota-Bradenton I, FL, US)
Text:KSRQ 211653Z 10016G22KT 10SM SCT037 30/21 A3008 RMK AO2 SLP186 T03000206
Temperature: 30.0°C ( 86°F)
Dewpoint: 20.6°C ( 69°F) [RH = 57%]
Pressure (altimeter):30.08 inches Hg (1018.7 mb) [Sea level pressure: 1018.6 mb]
Winds:from the E (100 degrees) at 18 MPH (16 knots; 8.2 m/s) gusting to 25 MPH (22 knots; 11.3 m/s)
Visibility:10 or more sm (16+ km)
Ceiling:at least 12,000 feet AGL
Clouds: scattered clouds at 3700 feet AGL